San Marcos, Argentina
Current Conditions -  °F | °C
As of 11:00 PM on Saturday 20 Dec 2014 (Local Time) from SAAR Reporting Station
Clear Clear  
Wind Chill: 70°   Ceiling: Unl
Heat Index: 70°   Visibility: 6mi
Dew Point: 63°   Wind: 7mph
Humidity: 78%   Direction: 180°S
Pressure: 29.62"   Gusts: NA
Location:  32.63°S, 62.47°W
Report Text: SAAR 210200Z 18006KT CAVOK 21/17 Q1003
Loading
Personal Weather Stations






























Interactive Weather Map New forecast layout! Learn more

10-Day Weather Forecast

Advertisements
Track Severe Weather on mobile